| time (UTC) | temp F | wind direction | speed MPH | gust MPH | rain 1hr in | rain 24hr in | rain mn in | humidity % | barometer mb |
| 20260905131538 | 55 | 157 | 5.0 | 7.0 | 0.00 | 0.00 | 0.00 | 69 | 852.4 |
| 20260905130034 | 55 | 159 | 3.0 | 5.0 | 0.00 | 0.00 | 0.00 | 67 | 852.4 |
| 20260905124516 | 56 | 155 | 2.0 | 5.0 | 0.00 | 0.00 | 0.00 | 66 | 852.3 |
| 20260905123014 | 56 | 163 | 2.0 | 4.0 | 0.00 | 0.00 | 0.00 | 65 | 852.1 |
| 20260905121514 | 59 | 136 | 2.0 | 3.0 | 0.00 | 0.00 | 0.00 | 60 | 852.0 |
| 20260905120021 | 61 | 215 | 1.0 | 4.0 | 0.00 | 0.00 | 0.00 | 56 | 851.8 |
| 20260905114518 | 61 | 188 | 2.0 | 4.0 | 0.00 | 0.00 | 0.00 | 56 | 851.8 |
| 20260905113014 | 61 | 209 | 3.0 | 5.0 | 0.00 | 0.00 | 0.00 | 55 | 851.8 |
| 20260905111519 | 61 | 219 | 2.0 | 4.0 | 0.00 | 0.00 | 0.00 | 55 | 851.8 |
| 20260905110014 | 61 | 214 | 2.0 | 4.0 | 0.00 | 0.00 | 0.00 | 56 | 851.9 |
| 20260905104518 | 60 | 218 | 2.0 | 4.0 | 0.00 | 0.00 | 0.00 | 56 | 851.8 |
| 20260905103013 | 59 | 229 | 2.0 | 4.0 | 0.00 | 0.00 | 0.00 | 57 | 851.7 |
| 20260905101514 | 59 | 216 | 3.0 | 4.0 | 0.00 | 0.00 | 0.00 | 59 | 851.7 |
| 20260905100015 | 60 | 191 | 1.0 | 3.0 | 0.00 | 0.00 | 0.00 | 57 | 851.7 |
| 20260905094514 | 60 | 193 | 1.0 | 2.0 | 0.00 | 0.00 | 0.00 | 55 | 851.8 |
| 20260905093014 | 61 | 186 | 1.0 | 3.0 | 0.00 | 0.00 | 0.00 | 54 | 851.8 |
| 20260905091514 | 61 | 175 | 2.0 | 5.0 | 0.00 | 0.00 | 0.00 | 55 | 851.8 |
| 20260905090016 | 62 | 154 | 1.0 | 3.0 | 0.00 | 0.00 | 0.00 | 58 | 851.8 |
| 20260905084514 | 63 | 127 | 2.0 | 4.0 | 0.00 | 0.00 | 0.00 | 54 | 851.9 |
| 20260905083011 | 63 | 158 | 1.0 | 2.0 | 0.00 | 0.00 | 0.00 | 53 | 851.9 |
| 20260905081514 | 64 | 126 | 0.0 | 4.0 | 0.00 | 0.00 | 0.00 | 53 | 852.1 |
| 20260905080034 | 65 | 186 | 1.0 | 3.0 | 0.00 | 0.00 | 0.00 | 51 | 852.1 |
| 20260905074537 | 66 | 196 | 1.0 | 5.0 | 0.00 | 0.00 | 0.00 | 51 | 852.0 |
| 20260905073016 | 66 | 181 | 3.0 | 6.0 | 0.00 | 0.00 | 0.00 | 52 | 852.0 |
| 20260905071513 | 66 | 178 | 3.0 | 8.0 | 0.00 | 0.00 | 0.00 | 50 | 852.0 |
| 20260905070016 | 66 | 179 | 2.0 | 6.0 | 0.00 | 0.00 | 0.00 | 50 | 852.0 |
| 20260905064514 | 69 | 183 | 0.0 | 6.0 | 0.00 | 0.00 | 0.00 | 46 | 851.8 |
| 20260905063016 | 70 | 211 | 2.0 | 7.0 | 0.00 | 0.00 | 0.00 | 44 | 851.8 |
| 20260905061517 | 71 | 211 | 3.0 | 9.0 | 0.00 | 0.00 | 0.00 | 45 | 851.7 |
| 20260905060014 | 72 | 177 | 5.0 | 9.0 | 0.00 | 0.00 | 0.00 | 44 | 851.7 |
| 20260905054521 | 72 | 176 | 3.0 | 7.0 | 0.00 | 0.00 | 0.00 | 46 | 851.7 |
| 20260905053016 | 71 | 171 | 5.0 | 9.0 | 0.00 | 0.00 | 0.00 | 48 | 851.7 |
| 20260905051528 | 70 | 192 | 6.0 | 10.0 | 0.00 | 0.00 | 0.00 | 52 | 851.6 |
| 20260905050016 | 68 | 223 | 4.0 | 8.0 | 0.00 | 0.00 | 0.00 | 57 | 851.5 |
| 20260905044513 | 67 | 167 | 5.0 | 8.0 | 0.00 | 0.00 | 0.00 | 57 | 851.5 |
| 20260905043019 | 67 | 163 | 3.0 | 5.0 | 0.00 | 0.00 | 0.00 | 57 | 851.4 |
| 20260905041516 | 68 | 163 | 2.0 | 6.0 | 0.00 | 0.00 | 0.00 | 56 | 851.3 |
| 20260905040018 | 68 | 175 | 3.0 | 6.0 | 0.00 | 0.00 | 0.00 | 53 | 851.2 |
| 20260905034516 | 70 | 169 | 3.0 | 5.0 | 0.00 | 0.00 | 0.00 | 51 | 851.3 |
| 20260905033014 | 71 | 179 | 4.0 | 7.0 | 0.00 | 0.00 | 0.00 | 49 | 851.2 |
| 20260905031518 | 71 | 167 | 3.0 | 7.0 | 0.00 | 0.00 | 0.00 | 48 | 851.1 |
| 20260905030014 | 72 | 176 | 3.0 | 6.0 | 0.00 | 0.00 | 0.00 | 46 | 850.9 |
| 20260905024523 | 73 | 186 | 5.0 | 9.0 | 0.00 | 0.00 | 0.00 | 45 | 850.8 |
| 20260905023021 | 74 | 184 | 3.0 | 7.0 | 0.00 | 0.00 | 0.00 | 43 | 850.7 |
| 20260905021514 | 75 | 230 | 3.0 | 9.0 | 0.00 | 0.00 | 0.00 | 42 | 850.6 |
| 20260905020014 | 77 | 191 | 5.0 | 7.0 | 0.00 | 0.00 | 0.00 | 42 | 850.5 |
| 20260905014532 | 78 | 186 | 5.0 | 11.0 | 0.00 | 0.00 | 0.00 | 38 | 850.4 |
| 20260905013015 | 79 | 171 | 6.0 | 16.0 | 0.00 | 0.00 | 0.00 | 37 | 850.3 |
| 20260905011512 | 80 | 180 | 7.0 | 15.0 | 0.00 | 0.00 | 0.00 | 35 | 850.3 |
| 20260905010016 | 81 | 230 | 11.0 | 18.0 | 0.00 | 0.00 | 0.00 | 35 | 850.2 |
| 20260905004514 | 81 | 178 | 11.0 | 18.0 | 0.00 | 0.00 | 0.00 | 36 | 850.4 |
| 20260905003016 | 81 | 146 | 10.0 | 18.0 | 0.00 | 0.00 | 0.00 | 37 | 850.5 |
| 20260905001534 | 81 | 173 | 11.0 | 17.0 | 0.00 | 0.00 | 0.00 | 37 | 850.5 |
| 20260905000013 | 81 | 185 | 14.0 | 23.0 | 0.00 | 0.00 | 0.00 | 37 | 850.5 |
| 20260904234521 | 81 | 189 | 13.0 | 21.0 | 0.00 | 0.00 | 0.00 | 37 | 850.5 |
| 20260904233014 | 83 | 230 | 10.0 | 24.0 | 0.00 | 0.00 | 0.00 | 34 | 850.4 |
| 20260904231513 | 83 | 212 | 10.0 | 20.0 | 0.00 | 0.00 | 0.00 | 33 | 850.4 |
| 20260904230015 | 84 | 217 | 12.0 | 18.0 | 0.00 | 0.00 | 0.00 | 32 | 850.4 |
| 20260904224514 | 83 | 222 | 10.0 | 24.0 | 0.00 | 0.00 | 0.00 | 33 | 850.4 |
| 20260904223014 | 84 | 171 | 12.0 | 24.0 | 0.00 | 0.00 | 0.00 | 33 | 850.5 |
| 20260904221534 | 84 | 184 | 10.0 | 22.0 | 0.00 | 0.00 | 0.00 | 28 | 850.5 |
| 20260904220016 | 84 | 163 | 12.0 | 25.0 | 0.00 | 0.00 | 0.00 | 32 | 850.6 |
| 20260904214516 | 84 | 166 | 9.0 | 23.0 | 0.00 | 0.00 | 0.00 | 31 | 850.6 |
| 20260904213014 | 84 | 168 | 11.0 | 23.0 | 0.00 | 0.00 | 0.00 | 33 | 850.8 |
| 20260904211516 | 84 | 209 | 12.0 | 20.0 | 0.00 | 0.00 | 0.00 | 33 | 850.7 |
| 20260904210017 | 84 | 177 | 15.0 | 29.0 | 0.00 | 0.00 | 0.00 | 33 | 850.9 |
| 20260904204519 | 84 | 176 | 13.0 | 22.0 | 0.00 | 0.00 | 0.00 | 30 | 850.9 |
| 20260904203015 | 83 | 192 | 11.0 | 26.0 | 0.00 | 0.00 | 0.00 | 32 | 851.2 |
| 20260904201528 | 83 | 192 | 14.0 | 23.0 | 0.00 | 0.00 | 0.00 | 31 | 851.3 |
| 20260904200037 | 84 | 201 | 11.0 | 20.0 | 0.00 | 0.00 | 0.00 | 35 | 851.4 |
| 20260904194518 | 83 | 168 | 17.0 | 25.0 | 0.00 | 0.00 | 0.00 | 32 | 851.5 |
| 20260904193019 | 84 | 193 | 13.0 | 23.0 | 0.00 | 0.00 | 0.00 | 34 | 851.6 |
| 20260904191516 | 83 | 187 | 12.0 | 22.0 | 0.00 | 0.00 | 0.00 | 32 | 851.7 |
| 20260904190015 | 83 | 193 | 11.0 | 22.0 | 0.00 | 0.00 | 0.00 | 35 | 851.9 |
| 20260904184517 | 81 | 175 | 10.0 | 21.0 | 0.00 | 0.00 | 0.00 | 38 | 852.0 |
| 20260904183015 | 80 | 175 | 7.0 | 18.0 | 0.00 | 0.00 | 0.00 | 42 | 852.0 |
| 20260904181515 | 79 | 154 | 11.0 | 19.0 | 0.00 | 0.00 | 0.00 | 50 | 852.1 |
| 20260904180017 | 77 | 132 | 6.0 | 21.0 | 0.00 | 0.00 | 0.00 | 50 | 852.2 |
| 20260904174516 | 78 | 159 | 11.0 | 20.0 | 0.00 | 0.00 | 0.00 | 54 | 852.2 |
| 20260904173016 | 77 | 122 | 11.0 | 19.0 | 0.00 | 0.00 | 0.00 | 56 | 852.1 |
| 20260904171540 | 78 | 113 | 12.0 | 21.0 | 0.00 | 0.00 | 0.00 | 55 | 852.1 |
| 20260904170014 | 78 | 144 | 13.0 | 20.0 | 0.00 | 0.00 | 0.00 | 55 | 852.1 |
| 20260904164518 | 77 | 121 | 14.0 | 20.0 | 0.00 | 0.00 | 0.00 | 58 | 852.1 |
| 20260904163037 | 76 | 144 | 12.0 | 18.0 | 0.00 | 0.00 | 0.00 | 59 | 851.9 |
| 20260904161517 | 75 | 131 | 13.0 | 18.0 | 0.00 | 0.00 | 0.00 | 62 | 851.9 |
| 20260904160017 | 74 | 137 | 12.0 | 20.0 | 0.00 | 0.00 | 0.00 | 63 | 851.9 |
| 20260904154520 | 73 | 128 | 12.0 | 18.0 | 0.00 | 0.00 | 0.00 | 63 | 851.9 |
| 20260904153025 | 72 | 122 | 11.0 | 19.0 | 0.00 | 0.00 | 0.00 | 65 | 851.8 |
| 20260904151532 | 71 | 132 | 10.0 | 17.0 | 0.00 | 0.00 | 0.00 | 65 | 851.7 |
| 20260904150021 | 71 | 120 | 10.0 | 15.0 | 0.00 | 0.00 | 0.00 | 65 | 851.6 |
| 20260904144518 | 69 | 119 | 11.0 | 15.0 | 0.00 | 0.00 | 0.00 | 67 | 851.7 |
| 20260904143017 | 67 | 134 | 9.0 | 13.0 | 0.00 | 0.00 | 0.00 | 72 | 851.5 |
| 20260904141516 | 65 | 137 | 6.0 | 10.0 | 0.00 | 0.00 | 0.00 | 77 | 851.4 |
| 20260904140017 | 63 | 132 | 5.0 | 8.0 | 0.00 | 0.00 | 0.00 | 79 | 851.3 |
| 20260904134523 | 62 | 134 | 5.0 | 9.0 | 0.00 | 0.00 | 0.00 | 80 | 851.1 |
| 20260904133022 | 61 | 135 | 6.0 | 9.0 | 0.00 | 0.00 | 0.00 | 82 | 851.0 |